Time;durP1;ratioP1;P1;durP2;ratioP2;P2;SDS_P1;SDS_P2;PMS_P1;PMS_P2;Temp;Humidity;BMP_temperature;BMP_pressure;BME280_temperature;BME280_humidity;BME280_pressure;Samples;Min_cycle;Max_cycle;Signal;HPM_P1;HPM_P2
2021/05/19 00:01:46;;;;;;;5.95;3.75;;;;;;;10.64;82.18;100320.72;5018253;28;20057;-76
2021/05/19 00:04:12;;;;;;;6.57;3.70;;;;;;;10.60;82.19;100316.34;5025883;28;20112;-77
2021/05/19 00:06:38;;;;;;;6.38;3.67;;;;;;;10.51;82.68;100320.81;5004728;28;20392;-77
2021/05/19 00:09:06;;;;;;;4.35;2.97;;;;;;;10.46;81.91;100317.34;5001900;28;20034;-77
2021/05/19 00:11:32;;;;;;;4.63;3.70;;;;;;;10.37;82.47;100312.13;5002377;28;20065;-77
2021/05/19 00:13:57;;;;;;;6.93;3.85;;;;;;;10.28;83.08;100313.09;5007132;28;20088;-77
2021/05/19 00:16:23;;;;;;;5.20;3.80;;;;;;;10.23;83.65;100324.53;5001871;28;20034;-76
2021/05/19 00:18:49;;;;;;;6.95;3.70;;;;;;;10.18;83.61;100318.44;5002493;28;20049;-76
2021/05/19 00:21:15;;;;;;;6.53;4.45;;;;;;;10.10;83.89;100314.09;5003446;28;20520;-77
2021/05/19 00:23:40;;;;;;;6.10;4.10;;;;;;;10.05;83.54;100318.50;4999583;28;20132;-77
2021/05/19 00:26:05;;;;;;;5.05;3.42;;;;;;;9.99;83.74;100313.28;5002681;28;20030;-76
2021/05/19 00:28:32;;;;;;;5.35;3.80;;;;;;;9.94;84.57;100317.72;5003087;28;20106;-76
2021/05/19 00:31:01;;;;;;;6.95;3.75;;;;;;;9.92;83.94;100319.50;5001728;28;20026;-77
2021/05/19 00:33:26;;;;;;;5.28;3.80;;;;;;;9.88;84.58;100315.13;5001686;28;20057;-77
2021/05/19 00:35:52;;;;;;;8.10;3.90;;;;;;;9.90;84.64;100318.63;5002780;28;20480;-77
2021/05/19 00:38:18;;;;;;;5.82;4.15;;;;;;;9.91;85.25;100320.38;5000732;28;20030;-77
2021/05/19 00:40:43;;;;;;;4.25;3.10;;;;;;;9.96;85.10;100320.38;5002733;28;20030;-77
2021/05/19 00:43:09;;;;;;;7.00;4.18;;;;;;;9.95;85.19;100324.72;5002351;28;20048;-77
2021/05/19 00:45:34;;;;;;;6.32;4.03;;;;;;;9.94;84.90;100319.50;5000674;28;20109;-77
2021/05/19 00:48:00;;;;;;;4.88;4.15;;;;;;;9.97;84.79;100328.25;5001639;28;20034;-76
2021/05/19 00:50:28;;;;;;;5.10;3.92;;;;;;;9.99;84.43;100322.97;5001672;28;20034;-77
2021/05/19 00:52:54;;;;;;;5.10;4.00;;;;;;;9.96;84.65;100317.72;4998767;28;20081;-76
2021/05/19 00:55:20;;;;;;;6.30;4.03;;;;;;;9.95;84.75;100319.47;5018114;28;20455;-77
2021/05/19 00:57:48;;;;;;;5.75;4.25;;;;;;;9.91;84.61;100325.66;4990677;28;20516;-77
2021/05/19 01:00:17;;;;;;;6.03;4.20;;;;;;;9.86;84.77;100324.81;5009903;28;20405;-76
2021/05/19 01:03:06;;;;;;;6.53;4.50;;;;;;;9.82;85.04;100323.97;4995244;28;20088;-77
2021/05/19 01:05:41;;;;;;;6.78;4.93;;;;;;;9.81;85.06;100322.19;5016878;28;20083;-76
2021/05/19 01:10:55;;;;;;;5.15;3.17;;;;;;;9.75;84.77;100330.16;5003448;28;20033;-76
2021/05/19 01:13:22;;;;;;;6.18;3.92;;;;;;;9.72;85.23;100319.63;5007367;28;20404;-77
2021/05/19 01:15:47;;;;;;;6.70;4.60;;;;;;;9.68;85.30;100325.78;5014102;28;20080;-77
2021/05/19 01:18:13;;;;;;;6.10;3.97;;;;;;;9.63;85.37;100327.59;5008192;28;20485;-77
2021/05/19 01:20:40;;;;;;;6.53;4.15;;;;;;;9.59;85.29;100326.72;5016410;28;20048;-77
2021/05/19 01:23:07;;;;;;;6.32;3.28;;;;;;;9.57;84.95;100325.88;5007914;28;20034;-76
2021/05/19 01:25:33;;;;;;;5.82;4.85;;;;;;;9.52;85.40;100325.00;5019902;28;20033;-77
2021/05/19 01:28:01;;;;;;;7.43;4.28;;;;;;;9.47;85.79;100318.88;5011058;28;20424;-76
2021/05/19 01:30:29;;;;;;;5.68;4.57;;;;;;;9.44;85.48;100326.81;5012813;28;20045;-77
2021/05/19 01:32:55;;;;;;;5.50;4.50;;;;;;;9.38;85.80;100329.47;5003991;28;20057;-76
2021/05/19 01:35:21;;;;;;;6.30;3.85;;;;;;;9.39;85.89;100329.44;5004414;28;20495;-76
2021/05/19 01:37:47;;;;;;;5.07;3.70;;;;;;;9.41;85.53;100334.72;5012488;28;20041;-77
2021/05/19 01:40:19;;;;;;;5.20;4.07;;;;;;;9.39;85.43;100336.50;5022231;28;20148;-77
2021/05/19 01:42:48;;;;;;;5.82;3.70;;;;;;;9.36;85.41;100342.66;5005483;28;20436;-76
2021/05/19 01:45:26;;;;;;;8.00;4.90;;;;;;;9.33;85.44;100341.78;5003574;28;20034;-76
2021/05/19 01:47:53;;;;;;;6.65;4.80;;;;;;;9.35;85.65;100345.28;5004578;28;20061;-76
2021/05/19 01:50:21;;;;;;;7.10;4.63;;;;;;;9.34;85.65;100340.91;5006331;28;20061;-76
2021/05/19 01:52:49;;;;;;;6.80;5.03;;;;;;;9.34;86.10;100348.81;5004722;28;20452;-76
2021/05/19 01:55:16;;;;;;;5.75;4.40;;;;;;;9.34;85.32;100346.16;5003578;28;20044;-77
2021/05/19 01:57:43;;;;;;;6.30;3.95;;;;;;;9.35;85.27;100340.00;5004363;28;20034;-77
2021/05/19 02:00:09;;;;;;;6.90;4.40;;;;;;;9.28;85.03;100349.69;5026660;28;20034;-77
2021/05/19 02:02:41;;;;;;;6.93;5.20;;;;;;;9.28;85.65;100348.84;5005912;28;20046;-76
2021/05/19 02:05:11;;;;;;;5.53;4.50;;;;;;;9.29;86.41;100354.06;5009651;28;20124;-76
2021/05/19 02:07:37;;;;;;;7.03;5.45;;;;;;;9.32;85.79;100342.66;5006622;28;20037;-76
2021/05/19 02:10:08;;;;;;;8.43;4.82;;;;;;;9.33;86.69;100347.94;5003037;28;20043;-77
2021/05/19 02:12:34;;;;;;;9.50;6.00;;;;;;;9.39;86.26;100358.44;5002518;28;20050;-77
2021/05/19 02:15:00;;;;;;;5.90;4.72;;;;;;;9.46;86.03;100355.75;5029243;28;20034;-77
2021/05/19 02:17:27;;;;;;;6.90;5.03;;;;;;;9.54;85.62;100354.88;5004775;28;20041;-77
2021/05/19 02:19:54;;;;;;;6.28;4.72;;;;;;;9.58;85.24;100356.59;5027401;28;20033;-77
2021/05/19 02:22:19;;;;;;;9.20;5.55;;;;;;;9.63;85.59;100353.94;5005744;28;20133;-77
2021/05/19 02:24:52;;;;;;;7.43;4.95;;;;;;;9.66;84.80;100360.06;5004478;28;20413;-77
2021/05/19 02:27:18;;;;;;;6.93;4.85;;;;;;;9.71;84.92;100356.53;5003283;28;20026;-76
2021/05/19 02:29:52;;;;;;;7.63;5.15;;;;;;;9.74;85.37;100364.41;5005900;28;20393;-77
2021/05/19 02:32:17;;;;;;;6.85;4.85;;;;;;;9.75;85.30;100367.06;5005026;28;20042;-77
2021/05/19 02:34:43;;;;;;;6.75;5.22;;;;;;;9.77;85.55;100364.38;5002175;28;20121;-77
2021/05/19 02:37:08;;;;;;;8.32;5.03;;;;;;;9.81;84.72;100361.72;5004595;28;20042;-76
2021/05/19 02:39:35;;;;;;;11.15;5.47;;;;;;;9.91;84.54;100362.56;5004677;28;20035;-77
2021/05/19 02:42:00;;;;;;;9.15;5.22;;;;;;;9.90;84.32;100366.06;5017808;28;20409;-77
2021/05/19 02:44:25;;;;;;;5.82;4.47;;;;;;;9.90;84.58;100368.69;5004776;28;20034;-77
2021/05/19 02:46:51;;;;;;;8.23;4.47;;;;;;;9.94;84.59;100359.91;5004136;28;20038;-77
2021/05/19 02:49:16;;;;;;;6.57;4.28;;;;;;;9.99;84.09;100368.66;5003315;28;20027;-76
2021/05/19 02:51:42;;;;;;;6.57;5.00;;;;;;;10.00;83.96;100366.91;5028385;28;20042;-77
2021/05/19 02:54:08;;;;;;;5.80;4.32;;;;;;;9.99;84.09;100371.31;5004923;28;20045;-77
2021/05/19 02:56:34;;;;;;;5.82;4.65;;;;;;;9.98;83.82;100377.47;5016880;28;20125;-77
2021/05/19 02:58:59;;;;;;;5.55;4.40;;;;;;;10.03;84.01;100372.16;5005478;28;20176;-77
2021/05/19 03:01:25;;;;;;;9.07;4.78;;;;;;;9.97;83.96;100367.78;5002594;28;20070;-77
2021/05/19 03:03:50;;;;;;;8.10;5.43;;;;;;;10.00;83.88;100375.69;5004078;28;20030;-77
2021/05/19 03:06:16;;;;;;;7.90;5.53;;;;;;;10.02;83.91;100373.03;5027487;28;20485;-76
2021/05/19 03:08:41;;;;;;;6.95;4.82;;;;;;;10.06;84.01;100375.66;5005471;28;20038;-77
2021/05/19 03:11:07;;;;;;;7.63;4.72;;;;;;;10.09;83.91;100382.66;5003352;28;20068;-77
2021/05/19 03:13:33;;;;;;;5.82;4.85;;;;;;;10.12;83.53;100376.50;5018086;28;20121;-76
2021/05/19 03:15:59;;;;;;;9.20;5.90;;;;;;;10.12;83.01;100381.78;5004898;28;20500;-77
2021/05/19 03:18:24;;;;;;;7.93;6.25;;;;;;;10.13;83.50;100381.75;5002310;28;20046;-77
2021/05/19 03:20:50;;;;;;;7.05;5.60;;;;;;;10.16;83.87;100380.84;5002976;28;20041;-77
2021/05/19 03:23:15;;;;;;;10.45;7.80;;;;;;;10.15;83.73;100376.47;5022232;28;20041;-77
2021/05/19 03:25:41;;;;;;;11.40;8.02;;;;;;;10.13;83.05;100379.09;5005397;28;20038;-77
2021/05/19 03:28:07;;;;;;;11.90;9.57;;;;;;;10.10;83.58;100387.91;5003384;28;20036;-77
2021/05/19 03:30:32;;;;;;;13.15;8.57;;;;;;;10.13;83.74;100383.50;5003891;28;20029;-77
2021/05/19 03:32:58;;;;;;;12.02;8.75;;;;;;;10.09;83.81;100386.19;5001238;28;20038;-77
2021/05/19 03:35:23;;;;;;;14.02;9.82;;;;;;;10.15;83.87;100389.66;5003664;28;20026;-77
2021/05/19 03:37:49;;;;;;;12.85;9.93;;;;;;;10.08;84.23;100394.09;5022971;28;20105;-77
2021/05/19 03:40:15;;;;;;;17.20;12.23;;;;;;;10.05;84.45;100389.69;5001582;28;20049;-77
2021/05/19 03:42:42;;;;;;;14.23;11.82;;;;;;;10.01;84.51;100385.34;5004705;28;20038;-77
2021/05/19 03:45:11;;;;;;;15.82;11.68;;;;;;;9.99;85.12;100392.38;5002971;28;20121;-77
2021/05/19 03:47:36;;;;;;;14.73;11.05;;;;;;;10.02;84.96;100396.78;5003980;28;20072;-76
2021/05/19 03:50:03;;;;;;;15.30;11.40;;;;;;;9.96;85.07;100397.69;5001853;28;20436;-76
2021/05/19 03:52:32;;;;;;;16.90;12.15;;;;;;;9.98;84.82;100397.66;5003453;28;20041;-77
2021/05/19 03:54:57;;;;;;;16.65;12.48;;;;;;;9.97;85.26;100394.16;5011872;28;20030;-77
2021/05/19 03:57:23;;;;;;;14.40;11.32;;;;;;;9.93;85.44;100404.72;5004604;28;20488;-77
2021/05/19 03:59:51;;;;;;;16.95;12.95;;;;;;;9.91;85.13;100395.97;5004058;28;20030;-77
2021/05/19 04:02:16;;;;;;;14.25;11.52;;;;;;;9.86;85.95;100402.13;5003229;28;20378;-77
2021/05/19 04:04:41;;;;;;;18.90;13.30;;;;;;;9.80;85.69;100401.31;5005288;28;20052;-77
2021/05/19 04:07:08;;;;;;;17.60;13.10;;;;;;;9.77;86.46;100403.94;5003887;28;20069;-77
2021/05/19 04:09:33;;;;;;;18.13;14.15;;;;;;;9.78;86.57;100403.06;5018355;28;20381;-77
2021/05/19 04:11:58;;;;;;;15.48;11.98;;;;;;;9.81;86.13;100411.81;5004355;28;20041;-76
2021/05/19 04:14:24;;;;;;;18.42;14.57;;;;;;;9.82;86.26;100407.41;5005717;28;20030;-77
2021/05/19 04:16:49;;;;;;;18.40;14.65;;;;;;;9.83;86.57;100410.06;5004652;28;20066;-77
2021/05/19 04:19:14;;;;;;;21.10;15.55;;;;;;;9.93;86.07;100402.97;5006386;28;20038;-77
2021/05/19 04:21:40;;;;;;;19.17;15.18;;;;;;;10.05;86.22;100421.34;5024727;28;20073;-79
2021/05/19 04:24:06;;;;;;;16.67;13.93;;;;;;;10.17;85.66;100419.53;5012998;28;20031;-79
2021/05/19 04:26:31;;;;;;;18.88;13.60;;;;;;;10.35;85.44;100423.81;5003405;28;20448;-77
2021/05/19 04:28:56;;;;;;;18.55;14.35;;;;;;;10.42;85.14;100426.41;5004603;28;20033;-76
2021/05/19 04:31:21;;;;;;;18.05;14.35;;;;;;;10.50;84.48;100429.88;5003031;28;20038;-78
2021/05/19 04:33:47;;;;;;;18.05;13.35;;;;;;;10.59;84.34;100433.34;5002851;28;20073;-77
2021/05/19 04:36:13;;;;;;;17.45;13.80;;;;;;;10.64;84.15;100436.84;5010761;28;20084;-76
2021/05/19 04:38:39;;;;;;;19.17;14.93;;;;;;;10.66;83.98;100435.03;5005210;28;20053;-78
2021/05/19 04:41:05;;;;;;;16.60;13.30;;;;;;;10.77;83.31;100434.94;5005454;28;20034;-78
2021/05/19 04:43:31;;;;;;;16.80;13.05;;;;;;;10.92;82.46;100438.31;5003975;28;20038;-76
2021/05/19 04:45:57;;;;;;;19.25;13.23;;;;;;;10.93;82.72;100445.38;5007290;28;20042;-77
2021/05/19 04:48:23;;;;;;;17.85;13.93;;;;;;;11.03;82.58;100447.91;5025557;28;20045;-77
2021/05/19 04:50:48;;;;;;;17.13;12.73;;;;;;;11.08;82.20;100449.66;5013724;28;20038;-78
2021/05/19 04:53:14;;;;;;;18.10;14.35;;;;;;;11.17;82.37;100444.25;5003048;28;20195;-78
2021/05/19 04:55:40;;;;;;;15.38;12.93;;;;;;;11.19;81.84;100444.25;5006898;28;20125;-77
2021/05/19 04:58:06;;;;;;;17.80;14.70;;;;;;;11.22;82.01;100457.44;5007703;28;20117;-77
2021/05/19 05:00:32;;;;;;;15.35;12.77;;;;;;;11.28;82.15;100452.06;5008802;28;20096;-77
2021/05/19 05:02:59;;;;;;;16.90;13.63;;;;;;;11.36;81.07;100458.16;5006772;28;20084;-78
2021/05/19 05:05:25;;;;;;;19.00;13.30;;;;;;;11.25;81.70;100457.41;5005876;28;20133;-78
2021/05/19 05:07:50;;;;;;;15.70;12.65;;;;;;;11.30;81.46;100449.44;5003018;28;20061;-78
2021/05/19 05:10:15;;;;;;;17.05;12.65;;;;;;;11.35;81.16;100456.41;5005064;28;20061;-77
2021/05/19 05:12:41;;;;;;;16.52;13.55;;;;;;;11.31;81.71;100456.44;5005254;28;20101;-77
2021/05/19 05:15:10;;;;;;;14.45;12.45;;;;;;;11.41;81.05;100458.09;5003569;28;20041;-78
2021/05/19 05:17:35;;;;;;;17.23;13.55;;;;;;;11.52;81.63;100460.63;5007169;28;20069;-77
2021/05/19 05:20:01;;;;;;;17.20;13.65;;;;;;;11.57;80.98;100458.81;5005465;28;20034;-77
2021/05/19 05:22:26;;;;;;;15.18;12.40;;;;;;;11.72;81.04;100458.63;5003662;28;20038;-78
2021/05/19 05:24:51;;;;;;;12.98;11.32;;;;;;;11.83;79.90;100462.00;5006755;28;20481;-77
2021/05/19 05:27:17;;;;;;;17.50;11.90;;;;;;;11.88;80.02;100469.06;5005262;28;20559;-77
2021/05/19 05:29:42;;;;;;;14.95;12.07;;;;;;;11.87;80.18;100462.00;5004243;28;20560;-77
2021/05/19 05:32:08;;;;;;;15.07;10.10;;;;;;;12.00;79.00;100475.06;5021617;28;20037;-77
2021/05/19 05:34:33;;;;;;;13.63;10.38;;;;;;;11.92;78.88;100474.31;5025382;28;20556;-78
2021/05/19 05:36:59;;;;;;;13.65;9.38;;;;;;;12.00;78.20;100479.50;5022244;28;20042;-78
2021/05/19 05:39:24;;;;;;;11.98;9.52;;;;;;;11.96;79.04;100477.78;5004090;28;20053;-78
2021/05/19 05:41:49;;;;;;;11.15;8.60;;;;;;;11.96;78.05;100483.94;5006366;28;20061;-77
2021/05/19 05:44:15;;;;;;;10.45;8.18;;;;;;;11.74;78.55;100493.88;5004751;28;20125;-78
2021/05/19 05:46:40;;;;;;;10.23;8.23;;;;;;;11.67;78.88;100489.53;5004582;28;20034;-77
2021/05/19 05:49:07;;;;;;;10.55;9.13;;;;;;;11.65;78.71;100495.72;5009235;28;20045;-78
2021/05/19 05:51:32;;;;;;;11.32;8.40;;;;;;;11.53;79.51;100502.03;5003883;28;20121;-78
2021/05/19 05:53:58;;;;;;;11.93;7.50;;;;;;;11.51;79.71;100496.75;5005213;28;20066;-78
2021/05/19 05:56:23;;;;;;;7.55;5.43;;;;;;;11.49;78.67;100503.81;5008228;28;20052;-78
2021/05/19 05:58:48;;;;;;;7.20;5.53;;;;;;;11.45;78.79;100509.16;5007245;28;20026;-78
2021/05/19 06:01:14;;;;;;;5.85;4.68;;;;;;;11.46;77.82;100503.00;5009132;28;20046;-78
2021/05/19 06:03:40;;;;;;;6.20;3.90;;;;;;;11.37;77.35;100515.41;4998307;28;20083;-77
2021/05/19 06:06:05;;;;;;;6.82;4.43;;;;;;;11.19;79.08;100515.59;5009497;28;20551;-77
2021/05/19 06:08:30;;;;;;;6.53;4.07;;;;;;;10.99;79.66;100521.03;5004821;28;20445;-77
2021/05/19 06:10:56;;;;;;;6.85;4.47;;;;;;;10.85;80.50;100526.41;5005171;28;20034;-77
2021/05/19 06:13:22;;;;;;;8.43;4.82;;;;;;;10.73;81.91;100523.84;5029627;28;20046;-77
2021/05/19 06:15:48;;;;;;;7.57;5.63;;;;;;;10.71;81.81;100523.84;5005602;28;20126;-77
2021/05/19 06:18:13;;;;;;;6.80;5.10;;;;;;;10.71;82.80;100528.25;5006396;28;20509;-77
2021/05/19 06:20:38;;;;;;;6.65;5.78;;;;;;;10.64;83.54;100531.84;5006271;28;20088;-77
2021/05/19 06:23:04;;;;;;;7.53;5.65;;;;;;;10.61;84.28;100535.38;5003584;28;20121;-77
2021/05/19 06:25:30;;;;;;;6.82;5.50;;;;;;;10.67;83.48;100535.34;5006319;28;20030;-77
2021/05/19 06:27:55;;;;;;;7.50;5.20;;;;;;;10.58;83.14;100538.00;5027880;28;20447;-77
2021/05/19 06:30:21;;;;;;;7.90;5.10;;;;;;;10.55;83.88;100537.16;5008050;28;20064;-77
2021/05/19 06:32:46;;;;;;;8.75;5.53;;;;;;;10.50;84.82;100543.34;5009426;28;20074;-77
2021/05/19 06:35:12;;;;;;;7.63;5.72;;;;;;;10.56;84.37;100539.81;5009222;28;20038;-77
2021/05/19 06:37:37;;;;;;;7.20;6.00;;;;;;;10.69;83.83;100540.63;5005091;28;20042;-77
2021/05/19 06:40:04;;;;;;;7.43;5.88;;;;;;;10.71;84.19;100538.81;5007771;28;20137;-77
2021/05/19 06:42:29;;;;;;;7.63;5.78;;;;;;;10.77;83.18;100549.34;5005532;28;20038;-77
2021/05/19 06:44:55;;;;;;;9.90;6.55;;;;;;;10.79;84.97;100549.31;5007123;28;20591;-78
2021/05/19 06:47:20;;;;;;;11.32;7.38;;;;;;;10.98;83.76;100543.03;5010683;28;20164;-78
2021/05/19 06:49:45;;;;;;;8.25;5.53;;;;;;;11.17;82.36;100549.91;5008215;28;20059;-77
2021/05/19 06:52:11;;;;;;;8.57;6.13;;;;;;;11.21;83.13;100550.75;5008719;28;20034;-78
2021/05/19 06:54:36;;;;;;;9.13;6.13;;;;;;;11.28;81.78;100549.81;5010383;28;20042;-77
2021/05/19 06:57:02;;;;;;;8.13;5.75;;;;;;;11.23;82.44;100551.63;5006707;28;20080;-77
2021/05/19 06:59:27;;;;;;;10.23;6.35;;;;;;;11.18;82.77;100553.44;5008877;28;20440;-77
2021/05/19 07:01:52;;;;;;;9.73;7.28;;;;;;;11.13;83.38;100553.50;5008430;28;20040;-77
2021/05/19 07:04:19;;;;;;;8.60;6.35;;;;;;;11.16;82.88;100557.84;5006411;28;20065;-77
2021/05/19 07:06:45;;;;;;;8.07;5.95;;;;;;;11.14;82.51;100560.50;5008464;28;20030;-78
2021/05/19 07:09:10;;;;;;;8.30;6.60;;;;;;;11.06;82.65;100559.72;5013668;28;20049;-78
2021/05/19 07:11:36;;;;;;;7.40;5.80;;;;;;;11.07;83.52;100564.09;5010780;28;20029;-76
2021/05/19 07:14:02;;;;;;;7.25;5.60;;;;;;;11.13;82.98;100560.50;5006840;28;20504;-78
2021/05/19 07:16:30;;;;;;;7.97;6.10;;;;;;;11.14;83.33;100562.28;5007780;28;20074;-78
2021/05/19 07:18:56;;;;;;;7.50;5.25;;;;;;;11.19;82.23;100556.06;5032416;28;20038;-78
2021/05/19 07:21:23;;;;;;;8.07;5.32;;;;;;;11.15;82.49;100558.75;5010146;28;20034;-78
2021/05/19 07:23:49;;;;;;;5.95;3.80;;;;;;;11.12;81.19;100562.28;5008913;28;20046;-77
2021/05/19 07:26:14;;;;;;;4.78;3.30;;;;;;;11.10;80.75;100566.69;5007745;28;20449;-77
2021/05/19 07:28:40;;;;;;;4.55;3.40;;;;;;;11.19;80.82;100571.06;5010497;28;20053;-78
2021/05/19 07:31:06;;;;;;;4.80;3.13;;;;;;;11.30;79.89;100569.19;5009924;28;20069;-78
2021/05/19 07:33:32;;;;;;;5.57;3.83;;;;;;;11.35;80.63;100572.66;5016013;28;20061;-78
2021/05/19 07:35:57;;;;;;;4.80;3.25;;;;;;;11.54;80.57;100577.78;5017811;28;20064;-78
2021/05/19 07:38:23;;;;;;;4.22;3.22;;;;;;;11.76;80.51;100571.41;5009930;28;20053;-77
2021/05/19 07:40:48;;;;;;;6.18;4.35;;;;;;;11.96;79.84;100573.00;5009332;28;20481;-77
2021/05/19 07:43:14;;;;;;;5.88;3.90;;;;;;;12.14;79.57;100571.91;5033777;28;20069;-78
2021/05/19 07:45:39;;;;;;;4.53;3.30;;;;;;;12.23;77.67;100567.34;5014020;28;20048;-78
2021/05/19 07:48:05;;;;;;;3.60;2.67;;;;;;;12.18;75.79;100566.56;5015456;28;20034;-77
2021/05/19 07:50:30;;;;;;;5.00;2.90;;;;;;;12.22;76.92;100562.09;5007062;28;20050;-78
2021/05/19 07:52:56;;;;;;;4.75;3.10;;;;;;;12.37;77.27;100563.69;5008136;28;20081;-78
2021/05/19 07:55:29;;;;;;;5.03;2.70;;;;;;;12.46;74.94;100563.56;5004069;28;20066;-78
2021/05/19 07:58:03;;;;;;;4.38;3.00;;;;;;;12.54;75.33;100563.44;5007329;28;20034;-78
2021/05/19 08:00:48;;;;;;;4.93;2.90;;;;;;;12.52;74.88;100562.59;5011724;28;20069;-77
2021/05/19 08:03:13;;;;;;;4.68;3.17;;;;;;;12.45;75.67;100570.63;5020200;28;20052;-77
2021/05/19 08:05:40;;;;;;;4.53;2.83;;;;;;;12.47;75.29;100567.94;5004453;28;20120;-78
2021/05/19 08:08:06;;;;;;;3.70;2.75;;;;;;;12.45;75.40;100559.16;5030536;28;20034;-78
2021/05/19 08:10:31;;;;;;;5.00;2.70;;;;;;;12.56;75.18;100569.59;5005606;28;20038;-76
2021/05/19 08:12:56;;;;;;;4.22;2.47;;;;;;;12.72;74.25;100577.31;5005905;28;20042;-78
2021/05/19 08:15:22;;;;;;;4.07;2.30;;;;;;;12.64;73.17;100573.88;5007848;28;20018;-78
2021/05/19 08:17:47;;;;;;;2.80;1.70;;;;;;;12.66;74.27;100569.44;5006588;28;20400;-77
2021/05/19 08:20:13;;;;;;;3.90;2.33;;;;;;;12.80;74.53;100574.53;5027674;28;20062;-78
2021/05/19 08:22:38;;;;;;;3.92;2.30;;;;;;;13.08;72.52;100575.00;5008294;28;20033;-78
2021/05/19 08:25:04;;;;;;;2.65;1.70;;;;;;;13.16;72.52;100581.06;5004576;28;20400;-77
2021/05/19 08:27:29;;;;;;;3.05;1.70;;;;;;;13.17;71.44;100587.22;5005818;28;20393;-78
2021/05/19 08:29:55;;;;;;;4.10;2.00;;;;;;;13.06;72.66;100582.09;5007185;28;20049;-78
2021/05/19 08:32:20;;;;;;;5.75;1.95;;;;;;;12.97;72.71;100592.84;5003894;28;20038;-78
2021/05/19 08:34:45;;;;;;;2.75;1.67;;;;;;;12.85;70.89;100585.06;5006882;28;20547;-76
2021/05/19 08:37:11;;;;;;;2.88;1.77;;;;;;;12.76;73.13;100587.84;5027967;28;20566;-78
2021/05/19 08:39:36;;;;;;;2.58;1.70;;;;;;;12.88;71.60;100579.72;5008916;28;20041;-78
2021/05/19 08:42:02;;;;;;;3.30;1.90;;;;;;;12.95;70.83;100586.69;5004710;28;20042;-77
2021/05/19 08:44:28;;;;;;;3.35;2.10;;;;;;;13.09;72.67;100591.78;5022066;28;20057;-77
2021/05/19 08:46:58;;;;;;;5.05;2.20;;;;;;;13.20;71.33;100588.94;5007603;28;20041;-78
2021/05/19 08:49:25;;;;;;;2.85;1.80;;;;;;;13.24;70.28;100590.66;5023575;28;20030;-78
2021/05/19 08:51:51;;;;;;;3.70;2.58;;;;;;;13.44;70.28;100593.91;5005816;28;20333;-78
2021/05/19 08:54:19;;;;;;;3.88;2.40;;;;;;;13.71;68.69;100591.66;5003190;28;20041;-78
2021/05/19 08:56:46;;;;;;;3.55;2.08;;;;;;;14.13;68.49;100582.00;5007255;28;20045;-78
2021/05/19 08:59:12;;;;;;;3.15;2.03;;;;;;;14.53;67.93;100575.03;5010986;28;20069;-78
2021/05/19 09:01:40;;;;;;;4.03;2.08;;;;;;;14.59;66.39;100578.44;5007327;28;20034;-77
2021/05/19 09:04:07;;;;;;;3.85;1.95;;;;;;;14.94;65.41;100579.41;5026021;28;20038;-77
2021/05/19 09:06:34;;;;;;;3.35;1.90;;;;;;;15.21;64.55;100574.34;5010210;28;20038;-78
2021/05/19 09:08:59;;;;;;;3.72;1.80;;;;;;;15.31;64.84;100584.72;5014027;28;20377;-78
2021/05/19 09:11:24;;;;;;;2.83;1.75;;;;;;;15.49;63.65;100571.88;5007498;28;20030;-78
2021/05/19 09:13:50;;;;;;;2.50;1.50;;;;;;;15.26;61.92;100575.09;5013367;28;20473;-78
2021/05/19 09:16:27;;;;;;;3.85;1.48;;;;;;;15.34;61.95;100567.81;5007645;28;20034;-78
2021/05/19 09:18:59;;;;;;;2.38;1.00;;;;;;;15.23;61.70;100570.75;5006423;28;20130;-77
2021/05/19 09:21:36;;;;;;;3.58;1.27;;;;;;;15.44;61.56;100563.13;5005782;28;20037;-78
2021/05/19 09:24:05;;;;;;;1.90;0.77;;;;;;;15.35;59.89;100564.22;5029855;28;20440;-78
2021/05/19 09:26:30;;;;;;;2.13;1.10;;;;;;;15.17;58.17;100565.59;5014238;28;20037;-79
2021/05/19 09:29:22;;;;;;;0.82;0.70;;;;;;;15.12;59.38;100568.34;5004642;28;20027;-79
2021/05/19 09:31:55;;;;;;;1.73;0.90;;;;;;;15.25;59.69;100570.72;5006233;28;20061;-79
2021/05/19 09:34:31;;;;;;;1.92;1.00;;;;;;;15.13;61.45;100563.91;5011071;28;20164;-78
2021/05/19 09:37:24;;;;;;;2.63;0.93;;;;;;;15.02;59.17;100574.78;5012013;28;20544;-78
2021/05/19 09:39:57;;;;;;;1.60;0.88;;;;;;;15.02;60.17;100566.81;5007442;28;20082;-79
2021/05/19 09:42:40;;;;;;;1.75;1.00;;;;;;;15.16;60.24;100574.44;5008984;28;20042;-78
2021/05/19 09:45:30;;;;;;;1.75;1.00;;;;;;;15.48;60.43;100559.47;5009806;28;20034;-78
2021/05/19 09:47:57;;;;;;;2.03;1.25;;;;;;;15.65;60.78;100567.03;5029796;28;20070;-78
2021/05/19 09:50:37;;;;;;;1.92;1.25;;;;;;;15.50;59.60;100568.28;5007984;28;20489;-79
2021/05/19 09:53:15;;;;;;;2.63;1.02;;;;;;;15.42;59.05;100571.13;5007959;28;20045;-78
2021/05/19 09:56:01;;;;;;;2.35;1.27;;;;;;;15.70;59.20;100560.69;5026745;28;20030;-79
2021/05/19 09:58:36;;;;;;;1.63;0.95;;;;;;;15.93;57.48;100560.06;5016789;28;20121;-77
2021/05/19 10:01:03;;;;;;;2.17;1.40;;;;;;;16.07;58.58;100561.47;5031305;28;20077;-77
2021/05/19 10:03:29;;;;;;;1.88;1.25;;;;;;;16.20;56.74;100560.22;5013235;28;20128;-77
2021/05/19 10:06:03;;;;;;;2.20;1.30;;;;;;;16.51;56.01;100551.31;5008689;28;20040;-77
2021/05/19 10:08:28;;;;;;;2.67;1.48;;;;;;;16.87;57.25;100543.97;5008233;28;20102;-78
2021/05/19 10:10:57;;;;;;;2.45;1.20;;;;;;;16.61;53.68;100545.66;5007910;28;20074;-78
2021/05/19 10:13:23;;;;;;;2.40;1.30;;;;;;;16.38;55.45;100545.47;5008886;28;20040;-79
2021/05/19 10:15:52;;;;;;;2.45;1.30;;;;;;;16.39;55.51;100544.56;5009677;28;20437;-78
2021/05/19 10:18:22;;;;;;;2.55;1.50;;;;;;;16.53;55.42;100546.78;5007849;28;20039;-78
2021/05/19 10:20:54;;;;;;;1.85;1.13;;;;;;;16.54;53.51;100541.44;5010513;28;20035;-77
2021/05/19 10:23:28;;;;;;;3.20;1.55;;;;;;;16.50;53.70;100542.44;5003762;28;20489;-77
2021/05/19 10:26:10;;;;;;;4.40;1.92;;;;;;;16.19;52.76;100532.72;5007859;28;20042;-77
2021/05/19 10:28:42;;;;;;;2.42;1.45;;;;;;;16.13;56.05;100532.88;5007780;28;20096;-78
2021/05/19 10:31:25;;;;;;;3.75;2.08;;;;;;;16.41;54.23;100518.75;5008259;28;20038;-78
2021/05/19 10:33:51;;;;;;;;;;;;;;;16.53;53.24;100514.81;5008169;28;20034;-79
2021/05/19 10:36:31;;;;;;;2.75;1.75;;;;;;;16.82;51.96;100527.25;5023217;28;20401;-79
2021/05/19 10:41:45;;;;;;;3.40;1.67;;;;;;;16.67;50.61;100517.06;5019957;28;20038;-79
2021/05/19 10:44:12;;;;;;;3.13;2.00;;;;;;;16.98;48.80;100515.19;5008090;28;20050;-79
2021/05/19 10:47:08;;;;;;;3.67;1.40;;;;;;;16.94;49.89;100520.66;5007266;28;20484;-79
2021/05/19 10:58:30;;;;;;;3.63;1.95;;;;;;;17.21;49.05;100508.22;5005284;28;20478;-78
2021/05/19 11:00:56;;;;;;;4.22;2.00;;;;;;;17.29;48.90;100501.72;5006351;28;20034;-80
2021/05/19 11:03:22;;;;;;;2.72;1.73;;;;;;;17.32;49.32;100511.41;5004235;28;20030;-78
2021/05/19 11:05:54;;;;;;;4.57;2.13;;;;;;;17.15;49.33;100509.28;5005628;28;20045;-78
2021/05/19 11:08:23;;;;;;;3.83;2.15;;;;;;;16.61;51.29;100523.44;5005760;28;20769;-78
2021/05/19 11:10:50;;;;;;;3.63;1.75;;;;;;;16.15;52.14;100519.53;5027030;28;20631;-78
2021/05/19 11:13:17;;;;;;;3.85;2.30;;;;;;;15.71;53.58;100532.28;5012499;28;20033;-78
2021/05/19 11:18:56;;;;;;;4.15;2.65;;;;;;;14.61;60.04;100544.72;5018656;28;20037;-77
2021/05/19 11:21:23;;;;;;;5.32;3.03;;;;;;;13.01;68.25;100562.75;5006292;28;20081;-76
2021/05/19 11:24:12;;;;;;;6.93;2.85;;;;;;;11.91;72.87;100572.16;5004589;28;20038;-76
2021/05/19 11:26:43;;;;;;;4.53;2.70;;;;;;;11.41;75.81;100583.19;5004274;28;20068;-75
2021/05/19 11:29:11;;;;;;;5.75;2.63;;;;;;;11.19;75.41;100585.13;5003332;28;20155;-76
2021/05/19 11:31:40;;;;;;;6.68;2.30;;;;;;;11.03;75.84;100572.94;5001137;28;20084;-76
2021/05/19 11:34:07;;;;;;;3.83;2.03;;;;;;;10.96;75.93;100572.09;5003407;28;20111;-76
2021/05/19 11:36:40;;;;;;;3.65;2.35;;;;;;;10.79;75.84;100579.22;5004038;28;20366;-77
2021/05/19 11:39:26;;;;;;;3.67;2.38;;;;;;;10.83;75.06;100582.75;5002178;28;20121;-76
2021/05/19 11:42:13;;;;;;;5.47;2.60;;;;;;;10.99;75.49;100578.25;5003795;28;20396;-76
2021/05/19 11:44:53;;;;;;;5.00;2.67;;;;;;;11.18;73.79;100579.84;5002498;28;20121;-77